createdAt,value
2019-04-12T00:00:04.888Z,6.64
2019-04-12T00:00:09.195Z,6.63
2019-04-12T00:00:13.402Z,6.63
2019-04-12T00:00:17.696Z,6.64
2019-04-12T00:00:21.894Z,6.63
2019-04-12T00:00:26.181Z,6.63
2019-04-12T00:00:34.459Z,6.63
2019-04-12T00:00:38.747Z,6.61
2019-04-12T00:00:43.051Z,6.61
2019-04-12T00:00:47.384Z,6.61
2019-04-12T00:00:51.745Z,6.62
2019-04-12T00:00:56.034Z,6.61
2019-04-12T00:01:04.490Z,6.61
2019-04-12T00:01:08.784Z,6.61
2019-04-12T00:01:13.071Z,6.61
2019-04-12T00:01:17.357Z,6.61
2019-04-12T00:01:21.643Z,6.62
2019-04-12T00:01:25.939Z,6.61
2019-04-12T00:01:34.510Z,6.61
2019-04-12T00:01:38.801Z,6.6
2019-04-12T00:01:43.090Z,6.6
2019-04-12T00:01:47.394Z,6.6
2019-04-12T00:01:51.693Z,6.6
2019-04-12T00:01:55.892Z,6.6
2019-04-12T00:02:04.319Z,6.6
2019-04-12T00:02:08.521Z,6.59
2019-04-12T00:02:12.810Z,6.59
2019-04-12T00:02:17.133Z,6.59
2019-04-12T00:02:21.427Z,6.59
2019-04-12T00:02:25.522Z,6.59
2019-04-12T00:02:33.587Z,6.59
2019-04-12T00:02:37.797Z,6.6
2019-04-12T00:02:42.089Z,6.58
2019-04-12T00:02:46.378Z,6.59
2019-04-12T00:02:50.680Z,6.59
2019-04-12T00:02:54.972Z,6.59
2019-04-12T00:03:02.159Z,6.59
2019-04-12T00:03:06.576Z,6.59
2019-04-12T00:03:10.863Z,6.59
2019-04-12T00:03:15.162Z,6.58
2019-04-12T00:03:19.484Z,6.59
2019-04-12T00:03:23.779Z,6.58
2019-04-12T00:03:32.428Z,6.59
2019-04-12T00:03:36.720Z,6.58
2019-04-12T00:03:41.009Z,6.59
2019-04-12T00:03:45.311Z,6.59
2019-04-12T00:03:49.610Z,6.58
2019-04-12T00:03:53.909Z,6.59
2019-04-12T00:04:02.776Z,6.59
2019-04-12T00:04:06.995Z,6.59
2019-04-12T00:04:11.282Z,6.59
2019-04-12T00:04:15.577Z,6.58
2019-04-12T00:04:19.867Z,6.59
2019-04-12T00:04:24.062Z,6.58
2019-04-12T00:04:32.648Z,6.59
2019-04-12T00:04:36.942Z,6.57
2019-04-12T00:04:41.236Z,6.58
2019-04-12T00:04:45.522Z,6.58
2019-04-12T00:04:49.814Z,6.58
2019-04-12T00:04:54.144Z,6.59
2019-04-12T00:05:02.557Z,6.59
2019-04-12T00:05:06.856Z,6.59
2019-04-12T00:05:11.149Z,6.58
2019-04-12T00:05:15.442Z,6.58
2019-04-12T00:05:19.729Z,6.58
2019-04-12T00:05:24.011Z,6.57
2019-04-12T00:05:32.083Z,6.59
2019-04-12T00:05:37.105Z,6.58
2019-04-12T00:05:41.403Z,6.58
2019-04-12T00:05:45.699Z,6.58
2019-04-12T00:05:49.905Z,6.57
2019-04-12T00:05:54.191Z,6.58
2019-04-12T00:06:03.327Z,6.57
2019-04-12T00:06:07.691Z,6.57
2019-04-12T00:06:12.028Z,6.58
2019-04-12T00:06:16.324Z,6.58
2019-04-12T00:06:20.541Z,6.58
2019-04-12T00:06:24.742Z,6.58
2019-04-12T00:06:32.512Z,6.58
2019-04-12T00:06:37.384Z,6.58
2019-04-12T00:06:41.676Z,6.58
2019-04-12T00:06:45.963Z,6.58
2019-04-12T00:06:50.297Z,6.58
2019-04-12T00:06:54.589Z,6.57
2019-04-12T00:07:00.823Z,6.57
2019-04-12T00:07:07.622Z,6.57
2019-04-12T00:07:11.818Z,6.58
2019-04-12T00:07:16.113Z,6.58
2019-04-12T00:07:20.411Z,6.58
2019-04-12T00:07:24.707Z,6.57
2019-04-12T00:07:32.330Z,6.57
2019-04-12T00:07:37.044Z,6.57
2019-04-12T00:07:41.338Z,6.57
2019-04-12T00:07:45.644Z,6.56
2019-04-12T00:07:49.942Z,6.56
2019-04-12T00:07:54.237Z,6.57
2019-04-12T00:07:58.431Z,6.56
2019-04-12T00:08:05.049Z,6.57
2019-04-12T00:08:09.338Z,6.56
2019-04-12T00:08:13.637Z,6.56
2019-04-12T00:08:17.947Z,6.56
2019-04-12T00:08:22.240Z,6.56
2019-04-12T00:08:30.425Z,6.55
2019-04-12T00:08:35.178Z,6.56
2019-04-12T00:08:39.462Z,6.55
2019-04-12T00:08:43.761Z,6.56
2019-04-12T00:08:48.102Z,6.55
2019-04-12T00:08:52.389Z,6.55
2019-04-12T00:08:59.129Z,6.55
2019-04-12T00:09:03.473Z,6.55
2019-04-12T00:09:07.766Z,6.56
2019-04-12T00:09:12.057Z,6.55
2019-04-12T00:09:16.356Z,6.55
2019-04-12T00:09:20.566Z,6.54
2019-04-12T00:09:28.487Z,6.55
2019-04-12T00:09:33.208Z,6.55
2019-04-12T00:09:37.524Z,6.54
2019-04-12T00:09:41.828Z,6.55
2019-04-12T00:09:46.120Z,6.54
2019-04-12T00:09:50.434Z,6.54
2019-04-12T00:09:58.519Z,6.54
2019-04-12T00:10:03.160Z,6.54
2019-04-12T00:10:07.457Z,6.54
2019-04-12T00:10:11.758Z,6.54
2019-04-12T00:10:16.056Z,6.53
2019-04-12T00:10:20.252Z,6.54
2019-04-12T00:10:24.455Z,6.53
2019-04-12T00:10:28.753Z,6.53
2019-04-12T00:10:33.074Z,6.54
2019-04-12T00:10:37.365Z,6.54
2019-04-12T00:10:41.559Z,6.53
2019-04-12T00:10:45.848Z,6.54
2019-04-12T00:10:50.139Z,6.53
2019-04-12T00:10:54.451Z,6.53
2019-04-12T00:10:58.742Z,6.52
2019-04-12T00:11:03.041Z,6.53
2019-04-12T00:11:07.357Z,6.52
2019-04-12T00:11:11.658Z,6.53
2019-04-12T00:11:15.953Z,6.53
2019-04-12T00:11:20.147Z,6.52
2019-04-12T00:11:24.435Z,6.52
2019-04-12T00:11:28.728Z,6.52
2019-04-12T00:11:33.017Z,6.52
2019-04-12T00:11:37.341Z,6.52
2019-04-12T00:11:41.553Z,6.52
2019-04-12T00:11:45.848Z,6.51
2019-04-12T00:11:50.179Z,6.51
2019-04-12T00:11:54.479Z,6.51
2019-04-12T00:11:58.766Z,6.5
2019-04-12T00:12:03.077Z,6.5
2019-04-12T00:12:07.366Z,6.51
2019-04-12T00:12:11.654Z,6.51
2019-04-12T00:12:15.942Z,6.5
2019-04-12T00:12:20.164Z,6.5
2019-04-12T00:12:24.367Z,6.5
2019-04-12T00:12:28.705Z,6.49
2019-04-12T00:12:33.016Z,6.5
2019-04-12T00:12:37.320Z,6.49
2019-04-12T00:12:41.617Z,6.5
2019-04-12T00:12:45.910Z,6.49
2019-04-12T00:12:50.208Z,6.5
2019-04-12T00:12:54.504Z,6.49
2019-04-12T00:12:58.801Z,6.49
2019-04-12T00:13:03.014Z,6.49
2019-04-12T00:13:07.311Z,6.49
2019-04-12T00:13:11.644Z,6.48
2019-04-12T00:13:15.844Z,6.49
2019-04-12T00:13:20.134Z,6.49
2019-04-12T00:13:24.344Z,6.49
2019-04-12T00:13:28.635Z,6.49
2019-04-12T00:13:32.942Z,6.5
2019-04-12T00:13:37.139Z,6.48
2019-04-12T00:13:41.333Z,6.49
2019-04-12T00:13:45.579Z,6.49
2019-04-12T00:13:49.789Z,6.48
2019-04-12T00:13:53.986Z,6.48
2019-04-12T00:13:58.277Z,6.48
2019-04-12T00:14:02.678Z,6.48
2019-04-12T00:14:07.010Z,6.48
2019-04-12T00:14:11.358Z,6.48
2019-04-12T00:14:15.656Z,6.48
2019-04-12T00:14:19.851Z,6.48
2019-04-12T00:14:24.151Z,6.48
2019-04-12T00:14:28.450Z,6.48
2019-04-12T00:14:32.648Z,6.48
2019-04-12T00:14:36.913Z,6.47
2019-04-12T00:14:45.213Z,6.47
2019-04-12T00:14:49.510Z,6.46
2019-04-12T00:14:53.797Z,6.46
2019-04-12T00:14:57.991Z,6.46
2019-04-12T00:15:02.386Z,6.47
2019-04-12T00:15:06.590Z,6.46
2019-04-12T00:15:15.033Z,6.46
2019-04-12T00:15:19.318Z,6.46
2019-04-12T00:15:23.614Z,6.46
2019-04-12T00:15:27.820Z,6.47
2019-04-12T00:15:32.112Z,6.46
2019-04-12T00:15:36.421Z,6.46
2019-04-12T00:15:45.823Z,6.47
2019-04-12T00:15:50.114Z,6.47
2019-04-12T00:15:54.412Z,6.47
2019-04-12T00:15:58.706Z,6.47
2019-04-12T00:16:03.039Z,6.46
2019-04-12T00:16:07.245Z,6.46
2019-04-12T00:16:15.566Z,6.46
2019-04-12T00:16:19.772Z,6.46
2019-04-12T00:16:23.963Z,6.47
2019-04-12T00:16:28.266Z,6.47
2019-04-12T00:16:32.454Z,6.47
2019-04-12T00:16:36.670Z,6.47
2019-04-12T00:16:45.409Z,6.47
2019-04-12T00:16:49.521Z,6.47
2019-04-12T00:16:53.722Z,6.47
2019-04-12T00:16:58.027Z,6.47
2019-04-12T00:17:02.322Z,6.46
2019-04-12T00:17:06.521Z,6.46
2019-04-12T00:17:14.495Z,6.47
2019-04-12T00:17:18.790Z,6.47
2019-04-12T00:17:23.084Z,6.47
2019-04-12T00:17:27.374Z,6.47
2019-04-12T00:17:31.663Z,6.47
2019-04-12T00:17:35.956Z,6.48
2019-04-12T00:17:44.172Z,6.47
2019-04-12T00:17:49.121Z,6.48
2019-04-12T00:17:53.407Z,6.48
2019-04-12T00:17:57.700Z,6.48
2019-04-12T00:18:02.019Z,6.48
2019-04-12T00:18:06.305Z,6.47
2019-04-12T00:18:15.416Z,6.49
2019-04-12T00:18:19.721Z,6.48
2019-04-12T00:18:24.010Z,6.48
2019-04-12T00:18:28.322Z,6.48
2019-04-12T00:18:32.630Z,6.47
2019-04-12T00:18:36.819Z,6.47
2019-04-12T00:18:42.914Z,6.48
2019-04-12T00:18:49.407Z,6.48
2019-04-12T00:18:53.697Z,6.47
2019-04-12T00:18:58.004Z,6.48
2019-04-12T00:19:02.323Z,6.48
2019-04-12T00:19:06.618Z,6.48
2019-04-12T00:19:14.539Z,6.48
2019-04-12T00:19:18.732Z,6.48
2019-04-12T00:19:23.021Z,6.48
2019-04-12T00:19:27.308Z,6.48
2019-04-12T00:19:31.499Z,6.48
2019-04-12T00:19:35.799Z,6.47
2019-04-12T00:19:43.367Z,6.48
2019-04-12T00:19:48.011Z,6.47
2019-04-12T00:19:52.304Z,6.48
2019-04-12T00:19:56.509Z,6.48
2019-04-12T00:20:00.800Z,6.48
2019-04-12T00:20:05.108Z,6.47
2019-04-12T00:20:09.305Z,6.47
2019-04-12T00:20:17.383Z,6.48
2019-04-12T00:20:21.570Z,6.48
2019-04-12T00:20:25.867Z,6.47
2019-04-12T00:20:30.171Z,6.48
2019-04-12T00:20:34.457Z,6.47
2019-04-12T00:20:38.755Z,6.48
2019-04-12T00:20:47.535Z,6.46
2019-04-12T00:20:51.838Z,6.48
2019-04-12T00:20:56.134Z,6.47
2019-04-12T00:21:00.426Z,6.47
2019-04-12T00:21:04.623Z,6.47
2019-04-12T00:21:08.916Z,6.47
2019-04-12T00:21:17.185Z,6.46
2019-04-12T00:21:21.472Z,6.47
2019-04-12T00:21:25.656Z,6.47
2019-04-12T00:21:29.955Z,6.47
2019-04-12T00:21:34.242Z,6.47
2019-04-12T00:21:38.554Z,6.47
2019-04-12T00:21:47.929Z,6.47
2019-04-12T00:21:52.258Z,6.47
2019-04-12T00:21:56.555Z,6.48
2019-04-12T00:22:00.855Z,6.47
2019-04-12T00:22:05.059Z,6.46
2019-04-12T00:22:09.403Z,6.47
2019-04-12T00:22:17.385Z,6.47
2019-04-12T00:22:21.698Z,6.46
2019-04-12T00:22:26.030Z,6.47
2019-04-12T00:22:30.328Z,6.46
2019-04-12T00:22:34.527Z,6.46
2019-04-12T00:22:38.826Z,6.47
2019-04-12T00:22:47.274Z,6.47
2019-04-12T00:22:51.572Z,6.46
2019-04-12T00:22:55.866Z,6.47
2019-04-12T00:23:00.164Z,6.47
2019-04-12T00:23:04.358Z,6.46
2019-04-12T00:23:08.647Z,6.47
2019-04-12T00:23:16.917Z,6.46
2019-04-12T00:23:21.227Z,6.47
2019-04-12T00:23:25.518Z,6.46
2019-04-12T00:23:29.826Z,6.45
2019-04-12T00:23:34.119Z,6.46
2019-04-12T00:23:38.322Z,6.46
2019-04-12T00:23:47.328Z,6.46
2019-04-12T00:23:51.647Z,6.46
2019-04-12T00:23:55.954Z,6.46
2019-04-12T00:24:00.281Z,6.46
2019-04-12T00:24:04.577Z,6.46
2019-04-12T00:24:08.783Z,6.46
2019-04-12T00:24:18.117Z,6.46
2019-04-12T00:24:22.417Z,6.46
2019-04-12T00:24:38.079Z,6.45
2019-04-12T00:24:42.288Z,6.45
2019-04-12T00:24:50.691Z,6.45
2019-04-12T00:24:54.986Z,6.45
2019-04-12T00:24:59.183Z,6.44
2019-04-12T00:25:03.497Z,6.44
2019-04-12T00:25:07.700Z,6.44
2019-04-12T00:25:11.994Z,6.44
2019-04-12T00:25:20.972Z,6.44
2019-04-12T00:25:25.173Z,6.43
2019-04-12T00:25:29.485Z,6.45
2019-04-12T00:25:33.775Z,6.44
2019-04-12T00:25:38.060Z,6.44
2019-04-12T00:25:42.274Z,6.45
2019-04-12T00:25:50.814Z,6.45
2019-04-12T00:25:55.119Z,6.44
2019-04-12T00:25:59.408Z,6.45
2019-04-12T00:26:03.730Z,6.45
2019-04-12T00:26:08.079Z,6.44
2019-04-12T00:26:12.370Z,6.44
2019-04-12T00:26:21.349Z,6.45
2019-04-12T00:26:25.652Z,6.45
2019-04-12T00:26:29.982Z,6.44
2019-04-12T00:26:34.079Z,6.44
2019-04-12T00:26:38.368Z,6.45
2019-04-12T00:26:42.660Z,6.45
2019-04-12T00:26:51.254Z,6.44
2019-04-12T00:26:55.540Z,6.45
2019-04-12T00:26:59.881Z,6.45
2019-04-12T00:27:03.988Z,6.44
2019-04-12T00:27:08.295Z,6.43
2019-04-12T00:27:12.595Z,6.44
2019-04-12T00:27:21.294Z,6.44
2019-04-12T00:27:25.591Z,6.44
2019-04-12T00:27:29.785Z,6.44
2019-04-12T00:27:34.074Z,6.44
2019-04-12T00:27:38.283Z,6.44
2019-04-12T00:27:42.571Z,6.43
2019-04-12T00:27:50.999Z,6.44
2019-04-12T00:27:55.299Z,6.43
2019-04-12T00:27:59.502Z,6.43
2019-04-12T00:28:03.799Z,6.43
2019-04-12T00:28:08.023Z,6.43
2019-04-12T00:28:12.222Z,6.42
2019-04-12T00:28:21.042Z,6.43
2019-04-12T00:28:25.333Z,6.43
2019-04-12T00:28:29.626Z,6.43
2019-04-12T00:28:33.922Z,6.43
2019-04-12T00:28:38.119Z,6.43
2019-04-12T00:28:42.406Z,6.43
2019-04-12T00:28:50.889Z,6.43
2019-04-12T00:28:55.193Z,6.42
2019-04-12T00:28:59.488Z,6.42
2019-04-12T00:29:03.810Z,6.42
2019-04-12T00:29:08.112Z,6.42
2019-04-12T00:29:12.405Z,6.42
2019-04-12T00:29:21.220Z,6.42
2019-04-12T00:29:25.582Z,6.43
2019-04-12T00:29:29.872Z,6.41
2019-04-12T00:29:34.169Z,6.43
2019-04-12T00:29:38.461Z,6.42
2019-04-12T00:29:42.659Z,6.43
2019-04-12T00:29:50.602Z,6.43
2019-04-12T00:29:55.292Z,6.42
2019-04-12T00:29:59.589Z,6.42
2019-04-12T00:30:03.962Z,6.42
2019-04-12T00:30:08.159Z,6.43
2019-04-12T00:30:12.453Z,6.42
2019-04-12T00:30:20.968Z,6.42
2019-04-12T00:30:25.650Z,6.41
2019-04-12T00:30:29.952Z,6.43
2019-04-12T00:30:34.255Z,6.42
2019-04-12T00:30:38.551Z,6.42
2019-04-12T00:30:42.857Z,6.41
2019-04-12T00:30:51.067Z,6.42
2019-04-12T00:30:55.772Z,6.42
2019-04-12T00:31:00.068Z,6.41
2019-04-12T00:31:04.365Z,6.42
2019-04-12T00:31:08.560Z,6.42
2019-04-12T00:31:12.855Z,6.42
2019-04-12T00:31:17.160Z,6.42
2019-04-12T00:31:26.096Z,6.42
2019-04-12T00:31:30.390Z,6.42
2019-04-12T00:31:34.690Z,6.42
2019-04-12T00:31:38.990Z,6.42
2019-04-12T00:31:43.199Z,6.42
2019-04-12T00:31:47.493Z,6.42
2019-04-12T00:31:54.900Z,6.42
2019-04-12T00:31:59.191Z,6.42
2019-04-12T00:32:03.508Z,6.42
2019-04-12T00:32:07.808Z,6.43
2019-04-12T00:32:12.143Z,6.43
2019-04-12T00:32:16.439Z,6.43
2019-04-12T00:32:25.135Z,6.43
2019-04-12T00:32:29.431Z,6.43
2019-04-12T00:32:33.730Z,6.42
2019-04-12T00:32:38.030Z,6.42
2019-04-12T00:32:42.333Z,6.43
2019-04-12T00:32:49.010Z,6.43
2019-04-12T00:32:56.074Z,6.42
2019-04-12T00:33:00.377Z,6.43
2019-04-12T00:33:04.799Z,6.43
2019-04-12T00:33:09.103Z,6.43
2019-04-12T00:33:13.401Z,6.44
2019-04-12T00:33:21.679Z,6.43
2019-04-12T00:33:26.639Z,6.43
2019-04-12T00:33:30.836Z,6.43
2019-04-12T00:33:35.039Z,6.43
2019-04-12T00:33:39.336Z,6.44
2019-04-12T00:33:43.632Z,6.43
2019-04-12T00:33:52.439Z,6.44
2019-04-12T00:33:57.383Z,6.43
2019-04-12T00:34:01.677Z,6.44
2019-04-12T00:34:05.987Z,6.43
2019-04-12T00:34:10.285Z,6.44
2019-04-12T00:34:14.598Z,6.44
2019-04-12T00:34:22.772Z,6.43
2019-04-12T00:34:27.795Z,6.44
2019-04-12T00:34:32.108Z,6.44
2019-04-12T00:34:36.411Z,6.44
2019-04-12T00:34:40.712Z,6.44
2019-04-12T00:34:45.004Z,6.44
2019-04-12T00:34:54.253Z,6.45
2019-04-12T00:34:58.497Z,6.45
2019-04-12T00:35:02.837Z,6.44
2019-04-12T00:35:07.200Z,6.46
2019-04-12T00:35:11.410Z,6.46
2019-04-12T00:35:15.722Z,6.46
2019-04-12T00:35:23.577Z,6.46
2019-04-12T00:35:27.887Z,6.46
2019-04-12T00:35:32.184Z,6.47
2019-04-12T00:35:36.482Z,6.47
2019-04-12T00:35:40.789Z,6.46
2019-04-12T00:35:45.083Z,6.47
2019-04-12T00:35:53.876Z,6.47
2019-04-12T00:35:58.188Z,6.48
2019-04-12T00:36:02.579Z,6.48
2019-04-12T00:36:06.897Z,6.48
2019-04-12T00:36:11.116Z,6.47
2019-04-12T00:36:15.426Z,6.49
2019-04-12T00:36:24.526Z,6.49
2019-04-12T00:36:28.832Z,6.47
2019-04-12T00:36:33.170Z,6.49
2019-04-12T00:36:37.475Z,6.49
2019-04-12T00:36:41.767Z,6.49
2019-04-12T00:36:46.062Z,6.49
2019-04-12T00:36:54.911Z,6.49
2019-04-12T00:36:59.214Z,6.49
2019-04-12T00:37:03.509Z,6.5
2019-04-12T00:37:07.704Z,6.5
2019-04-12T00:37:11.993Z,6.5
2019-04-12T00:37:16.189Z,6.5
2019-04-12T00:37:25.198Z,6.5
2019-04-12T00:37:29.614Z,6.51
2019-04-12T00:37:33.911Z,6.51
2019-04-12T00:37:38.212Z,6.51
2019-04-12T00:37:42.501Z,6.52
2019-04-12T00:37:46.798Z,6.52
2019-04-12T00:37:55.085Z,6.52
2019-04-12T00:38:00.037Z,6.52
2019-04-12T00:38:04.337Z,6.52
2019-04-12T00:38:08.633Z,6.52
2019-04-12T00:38:12.862Z,6.53
2019-04-12T00:38:17.057Z,6.53
2019-04-12T00:38:21.250Z,6.52
2019-04-12T00:38:30.579Z,6.52
2019-04-12T00:38:34.903Z,6.53
2019-04-12T00:38:39.100Z,6.53
2019-04-12T00:38:43.296Z,6.52
2019-04-12T00:38:47.626Z,6.52
2019-04-12T00:38:51.986Z,6.52
2019-04-12T00:39:00.626Z,6.52
2019-04-12T00:39:04.969Z,6.52
2019-04-12T00:39:09.261Z,6.53
2019-04-12T00:39:13.623Z,6.52
2019-04-12T00:39:17.915Z,6.52
2019-04-12T00:39:22.211Z,6.52
2019-04-12T00:39:31.388Z,6.52
2019-04-12T00:39:35.682Z,6.52
2019-04-12T00:39:39.984Z,6.52
2019-04-12T00:39:44.276Z,6.51
2019-04-12T00:39:48.569Z,6.52
2019-04-12T00:39:52.868Z,6.52
2019-04-12T00:40:02.197Z,6.52
2019-04-12T00:40:06.492Z,6.52
2019-04-12T00:40:10.695Z,6.51
2019-04-12T00:40:14.996Z,6.52
2019-04-12T00:40:19.286Z,6.52
2019-04-12T00:40:23.637Z,6.51
2019-04-12T00:40:32.096Z,6.52
2019-04-12T00:40:36.417Z,6.53
2019-04-12T00:40:40.753Z,6.52
2019-04-12T00:40:45.047Z,6.52
2019-04-12T00:40:49.344Z,6.52
2019-04-12T00:40:53.643Z,6.52
2019-04-12T00:41:01.805Z,6.52
2019-04-12T00:41:06.655Z,6.51
2019-04-12T00:41:10.971Z,6.52
2019-04-12T00:41:15.278Z,6.51
2019-04-12T00:41:19.575Z,6.51
2019-04-12T00:41:23.937Z,6.51
2019-04-12T00:41:31.906Z,6.51
2019-04-12T00:41:36.826Z,6.51
2019-04-12T00:41:41.152Z,6.51
2019-04-12T00:41:45.469Z,6.5
2019-04-12T00:41:49.766Z,6.51
2019-04-12T00:41:54.063Z,6.5
2019-04-12T00:41:59.998Z,6.51
2019-04-12T00:42:07.390Z,6.51
2019-04-12T00:42:11.695Z,6.5
2019-04-12T00:42:16.003Z,6.5
2019-04-12T00:42:20.294Z,6.5
2019-04-12T00:42:24.597Z,6.5
2019-04-12T00:42:32.617Z,6.51
2019-04-12T00:42:37.518Z,6.5
2019-04-12T00:42:41.810Z,6.5
2019-04-12T00:42:46.128Z,6.5
2019-04-12T00:42:50.445Z,6.5
2019-04-12T00:42:54.760Z,6.5
2019-04-12T00:43:02.901Z,6.49
2019-04-12T00:43:07.349Z,6.49
2019-04-12T00:43:11.657Z,6.5
2019-04-12T00:43:15.945Z,6.49
2019-04-12T00:43:20.257Z,6.49
2019-04-12T00:43:24.590Z,6.5
2019-04-12T00:43:31.230Z,6.49
2019-04-12T00:43:38.025Z,6.49
2019-04-12T00:43:42.322Z,6.49
2019-04-12T00:43:46.613Z,6.49
2019-04-12T00:43:50.933Z,6.48
2019-04-12T00:43:55.241Z,6.48
2019-04-12T00:43:59.529Z,6.49
2019-04-12T00:44:06.297Z,6.48
2019-04-12T00:44:10.592Z,6.48
2019-04-12T00:44:14.884Z,6.48
2019-04-12T00:44:19.170Z,6.48
2019-04-12T00:44:23.458Z,6.48
2019-04-12T00:44:27.777Z,6.48
2019-04-12T00:44:36.644Z,6.47
2019-04-12T00:44:40.929Z,6.48
2019-04-12T00:44:45.221Z,6.48
2019-04-12T00:44:49.515Z,6.47
2019-04-12T00:44:53.735Z,6.47
2019-04-12T00:44:57.836Z,6.46
2019-04-12T00:45:06.840Z,6.48
2019-04-12T00:45:11.160Z,6.47
2019-04-12T00:45:15.460Z,6.47
2019-04-12T00:45:19.754Z,6.48
2019-04-12T00:45:24.109Z,6.46
2019-04-12T00:45:28.417Z,6.47
2019-04-12T00:45:37.700Z,6.46
2019-04-12T00:45:41.994Z,6.46
2019-04-12T00:45:46.287Z,6.47
2019-04-12T00:45:50.578Z,6.46
2019-04-12T00:45:54.813Z,6.46
2019-04-12T00:45:59.100Z,6.46
2019-04-12T00:46:07.676Z,6.45
2019-04-12T00:46:11.967Z,6.46
2019-04-12T00:46:16.265Z,6.45
2019-04-12T00:46:20.484Z,6.44
2019-04-12T00:46:24.775Z,6.45
2019-04-12T00:46:29.075Z,6.44
2019-04-12T00:46:38.848Z,6.44
2019-04-12T00:46:43.206Z,6.44
2019-04-12T00:46:47.494Z,6.44
2019-04-12T00:46:51.782Z,6.44
2019-04-12T00:46:56.076Z,6.45
2019-04-12T00:47:00.364Z,6.44
2019-04-12T00:47:08.993Z,6.45
2019-04-12T00:47:13.743Z,6.45
2019-04-12T00:47:18.032Z,6.44
2019-04-12T00:47:22.356Z,6.44
2019-04-12T00:47:26.650Z,6.45
2019-04-12T00:47:30.951Z,6.44
2019-04-12T00:47:39.085Z,6.44
2019-04-12T00:47:44.026Z,6.43
2019-04-12T00:47:48.319Z,6.44
2019-04-12T00:47:52.616Z,6.43
2019-04-12T00:47:56.910Z,6.43
2019-04-12T00:48:01.138Z,6.42
2019-04-12T00:48:05.396Z,6.44
2019-04-12T00:48:13.988Z,6.42
2019-04-12T00:48:18.182Z,6.43
2019-04-12T00:48:22.488Z,6.43
2019-04-12T00:48:26.781Z,6.42
2019-04-12T00:48:31.079Z,6.43
2019-04-12T00:48:35.173Z,6.42
2019-04-12T00:48:42.181Z,6.42
2019-04-12T00:48:46.479Z,6.42
2019-04-12T00:48:50.684Z,6.43
2019-04-12T00:48:54.976Z,6.42
2019-04-12T00:48:59.282Z,6.42
2019-04-12T00:49:03.588Z,6.43
2019-04-12T00:49:12.633Z,6.42
2019-04-12T00:49:16.927Z,6.43
2019-04-12T00:49:21.230Z,6.42
2019-04-12T00:49:25.521Z,6.42
2019-04-12T00:49:29.839Z,6.42
2019-04-12T00:49:34.130Z,6.42
2019-04-12T00:49:43.783Z,6.42
2019-04-12T00:49:48.084Z,6.41
2019-04-12T00:49:52.374Z,6.42
2019-04-12T00:49:56.661Z,6.41
2019-04-12T00:50:00.957Z,6.41
2019-04-12T00:50:05.276Z,6.42
2019-04-12T00:50:14.375Z,6.42
2019-04-12T00:50:18.622Z,6.42
2019-04-12T00:50:22.915Z,6.41
2019-04-12T00:50:27.108Z,6.42
2019-04-12T00:50:31.406Z,6.41
2019-04-12T00:50:35.706Z,6.42
2019-04-12T00:50:44.559Z,6.42
2019-04-12T00:50:48.762Z,6.42
2019-04-12T00:50:53.069Z,6.41
2019-04-12T00:50:57.264Z,6.41
2019-04-12T00:51:01.461Z,6.41
2019-04-12T00:51:11.897Z,6.41
2019-04-12T00:51:16.509Z,6.41
2019-04-12T00:51:20.811Z,6.42
2019-04-12T00:51:25.000Z,6.41
2019-04-12T00:51:29.300Z,6.41
2019-04-12T00:51:33.499Z,6.41
2019-04-12T00:51:42.220Z,6.42
2019-04-12T00:51:47.025Z,6.41
2019-04-12T00:51:51.226Z,6.42
2019-04-12T00:51:55.524Z,6.42
2019-04-12T00:51:59.810Z,6.42
2019-04-12T00:52:04.321Z,6.42
2019-04-12T00:52:13.790Z,6.42
2019-04-12T00:52:18.811Z,6.41
2019-04-12T00:52:23.191Z,6.43
2019-04-12T00:52:27.506Z,6.42
2019-04-12T00:52:31.806Z,6.41
2019-04-12T00:52:36.103Z,6.42
2019-04-12T00:52:42.684Z,6.42
2019-04-12T00:52:47.415Z,6.42
2019-04-12T00:52:51.721Z,6.42
2019-04-12T00:52:56.019Z,6.41
2019-04-12T00:53:00.312Z,6.42
2019-04-12T00:53:04.513Z,6.42
2019-04-12T00:53:10.992Z,6.41
2019-04-12T00:53:17.726Z,6.41
2019-04-12T00:53:22.018Z,6.41
2019-04-12T00:53:26.317Z,6.41
2019-04-12T00:53:30.523Z,6.41
2019-04-12T00:53:34.714Z,6.41
2019-04-12T00:53:39.004Z,6.41
2019-04-12T00:53:48.342Z,6.41
2019-04-12T00:53:52.651Z,6.4
2019-04-12T00:53:56.953Z,6.4
2019-04-12T00:54:01.252Z,6.4
2019-04-12T00:54:05.554Z,6.4
2019-04-12T00:54:09.767Z,6.4
2019-04-12T00:54:17.085Z,6.4
2019-04-12T00:54:21.380Z,6.39
2019-04-12T00:54:25.679Z,6.39
2019-04-12T00:54:30.001Z,6.4
2019-04-12T00:54:45.581Z,6.4
2019-04-12T00:54:54.219Z,6.39
2019-04-12T00:54:58.528Z,6.39
2019-04-12T00:55:02.826Z,6.39
2019-04-12T00:55:07.030Z,6.39
2019-04-12T00:55:11.339Z,6.39
2019-04-12T00:55:15.637Z,6.39
2019-04-12T00:55:22.579Z,6.4
2019-04-12T00:55:26.885Z,6.4
2019-04-12T00:55:31.176Z,6.39
2019-04-12T00:55:35.467Z,6.4
2019-04-12T00:55:39.661Z,6.4
2019-04-12T00:55:43.952Z,6.4
2019-04-12T00:55:51.093Z,6.4
2019-04-12T00:55:55.389Z,6.39
2019-04-12T00:55:59.683Z,6.39
2019-04-12T00:56:04.191Z,6.39
2019-04-12T00:56:08.491Z,6.39
2019-04-12T00:56:12.718Z,6.4
2019-04-12T00:56:19.965Z,6.4
2019-04-12T00:56:24.300Z,6.4
2019-04-12T00:56:28.597Z,6.4
2019-04-12T00:56:32.890Z,6.39
2019-04-12T00:56:37.094Z,6.4
2019-04-12T00:56:41.393Z,6.4
2019-04-12T00:56:50.529Z,6.39
2019-04-12T00:56:54.833Z,6.39
2019-04-12T00:56:59.030Z,6.4
2019-04-12T00:57:03.422Z,6.4
2019-04-12T00:57:07.621Z,6.4
2019-04-12T00:57:11.821Z,6.4
2019-04-12T00:57:18.860Z,6.4
2019-04-12T00:57:23.156Z,6.4
2019-04-12T00:57:27.361Z,6.4
2019-04-12T00:57:31.658Z,6.39
2019-04-12T00:57:35.948Z,6.39
2019-04-12T00:57:40.244Z,6.4
2019-04-12T00:57:49.172Z,6.4
2019-04-12T00:57:53.460Z,6.4
2019-04-12T00:57:57.751Z,6.4
2019-04-12T00:58:02.051Z,6.4
2019-04-12T00:58:06.442Z,6.4
2019-04-12T00:58:10.641Z,6.41
2019-04-12T00:58:19.034Z,6.42
2019-04-12T00:58:23.326Z,6.41
2019-04-12T00:58:27.636Z,6.4
2019-04-12T00:58:31.929Z,6.42
2019-04-12T00:58:36.225Z,6.42
2019-04-12T00:58:40.559Z,6.42
2019-04-12T00:58:49.301Z,6.43
2019-04-12T00:58:53.592Z,6.43
2019-04-12T00:58:57.900Z,6.43
2019-04-12T00:59:02.205Z,6.43
2019-04-12T00:59:06.510Z,6.43
2019-04-12T00:59:10.805Z,6.43
2019-04-12T00:59:19.544Z,6.43
2019-04-12T00:59:23.841Z,6.43
2019-04-12T00:59:28.144Z,6.43
2019-04-12T00:59:32.473Z,6.43
2019-04-12T00:59:36.781Z,6.44
2019-04-12T00:59:41.104Z,6.44
2019-04-12T00:59:50.257Z,6.43
2019-04-12T00:59:54.556Z,6.43
2019-04-12T00:59:58.885Z,6.44
2019-04-12T01:00:03.193Z,6.43
2019-04-12T01:00:07.511Z,6.43
2019-04-12T01:00:11.901Z,6.43
2019-04-12T01:00:20.906Z,6.43
2019-04-12T01:00:25.117Z,6.43
2019-04-12T01:00:29.414Z,6.43
2019-04-12T01:00:33.754Z,6.44
2019-04-12T01:00:38.062Z,6.44
2019-04-12T01:00:42.354Z,6.44
2019-04-12T01:00:51.325Z,6.44
2019-04-12T01:00:55.632Z,6.44
2019-04-12T01:00:59.931Z,6.44
2019-04-12T01:01:04.235Z,6.43
2019-04-12T01:01:08.538Z,6.43
2019-04-12T01:01:12.853Z,6.44
2019-04-12T01:01:21.329Z,6.44
2019-04-12T01:01:25.632Z,6.43
2019-04-12T01:01:31.479Z,6.43
2019-04-12T01:01:35.844Z,6.43
2019-04-12T01:01:40.151Z,6.43
2019-04-12T01:01:44.473Z,6.43
2019-04-12T01:01:51.059Z,6.43
2019-04-12T01:01:55.357Z,6.43
2019-04-12T01:01:59.656Z,6.42
2019-04-12T01:02:04.099Z,6.42
2019-04-12T01:02:08.302Z,6.44
2019-04-12T01:02:15.248Z,6.43
2019-04-12T01:02:19.510Z,6.42
2019-04-12T01:02:23.711Z,6.43
2019-04-12T01:02:27.913Z,6.42
2019-04-12T01:02:32.123Z,6.42
2019-04-12T01:02:36.330Z,6.42
2019-04-12T01:02:40.657Z,6.42
2019-04-12T01:02:49.634Z,6.42
2019-04-12T01:02:53.837Z,6.42
2019-04-12T01:02:58.087Z,6.41
2019-04-12T01:03:02.288Z,6.41
2019-04-12T01:03:06.594Z,6.42
2019-04-12T01:03:10.815Z,6.42
2019-04-12T01:03:19.241Z,6.41
2019-04-12T01:03:23.444Z,6.42
2019-04-12T01:03:27.663Z,6.42
2019-04-12T01:03:31.975Z,6.42
2019-04-12T01:03:36.083Z,6.41
2019-04-12T01:03:40.319Z,6.41
2019-04-12T01:03:48.991Z,6.42
2019-04-12T01:03:53.199Z,6.42
2019-04-12T01:03:57.502Z,6.42
2019-04-12T01:04:01.814Z,6.41
2019-04-12T01:04:06.113Z,6.42
2019-04-12T01:04:10.322Z,6.42
2019-04-12T01:04:18.854Z,6.41
2019-04-12T01:04:23.052Z,6.41
2019-04-12T01:04:27.274Z,6.42
2019-04-12T01:04:31.575Z,6.41
2019-04-12T01:04:35.879Z,6.41
2019-04-12T01:04:40.094Z,6.41
2019-04-12T01:04:49.415Z,6.41
2019-04-12T01:04:53.629Z,6.4
2019-04-12T01:04:57.925Z,6.4
2019-04-12T01:05:02.229Z,6.41
2019-04-12T01:05:06.543Z,6.41
2019-04-12T01:05:10.899Z,6.4
2019-04-12T01:05:19.381Z,6.41
2019-04-12T01:05:23.604Z,6.41
2019-04-12T01:05:27.834Z,6.4
2019-04-12T01:05:32.174Z,6.4
2019-04-12T01:05:36.513Z,6.41
2019-04-12T01:05:40.878Z,6.4
2019-04-12T01:05:49.498Z,6.4
2019-04-12T01:05:53.794Z,6.4
2019-04-12T01:05:57.997Z,6.39
2019-04-12T01:06:02.401Z,6.4
2019-04-12T01:06:06.616Z,6.4
2019-04-12T01:06:10.789Z,6.4
2019-04-12T01:06:19.583Z,6.39
2019-04-12T01:06:23.887Z,6.39
2019-04-12T01:06:28.102Z,6.39